Dades meteomassalio
Diari Summary for Marc 2, 2018 Units:  English    Metric   Both
« Previous Day
Next Day »
Diari Semanal Mensual Anual Personalitzat
  Maxima: Minima: Mijana:
Temperatura: TemperatureC °F 1.1 °F 8.7 °F
Rosada: DewpointC °F -2.1 °F 2.6 °F
Humitat: Humidity % 52 % 66 %
Velocitat del vent: WindSpeedKMH mph 0.0 mph 10.9 mph
Racha vent: WindSpeedGustKMH mph - -
Vent:- - SW
Pressio: PressurehPa in 994.5 in -
Pluja: 1.3 in    
Historical Graphs
 
 
Tabular Data for Marc 2, 2018
Time Temperature Dew Point Pressure Wind Wind Speed Wind Gust Humidity Rainfall Rate (Hourly) solar Conditions
TemperatureC °F DewpointC °F PressurehPa in Calm     Humidity % HourlyPrecipMM in SolarRadiationWatts/m^2 W/m2 Conditions
00:03 11.4 °F 3.4 °F 994.5 in NW 24.1 mph 24.1 mph 58 % 0.0 in 0.0 W/m2 CLR
00:08 11.3 °F 3.1 °F 994.5 in WNW 42.6 mph 42.6 mph 57 % 0.0 in 0.0 W/m2 CLR
00:13 11.3 °F 3.1 °F 994.8 in NW 33.8 mph 33.8 mph 57 % 0.0 in 0.0 W/m2 CLR
00:18 11.5 °F 3.0 °F 994.8 in NW 44.4 mph 44.4 mph 56 % 0.0 in 0.0 W/m2 CLR
00:23 11.4 °F 2.9 °F 995.1 in WNW 32.2 mph 32.2 mph 56 % 0.0 in 0.0 W/m2 CLR
00:28 11.4 °F 2.9 °F 995.1 in NW 38.6 mph 38.6 mph 56 % 0.0 in 0.0 W/m2 CLR
00:33 11.3 °F 2.9 °F 995.1 in NW 35.2 mph 35.2 mph 56 % 0.0 in 0.0 W/m2 CLR
00:38 11.2 °F 2.9 °F 995.5 in NNW 35.2 mph 35.2 mph 57 % 0.0 in 0.0 W/m2 CLR
00:43 11.1 °F 2.7 °F 995.5 in NW 31.5 mph 31.5 mph 56 % 0.0 in 0.0 W/m2 CLR
00:48 11.1 °F 2.6 °F 995.5 in NW 38.9 mph 38.9 mph 56 % 0.0 in 0.0 W/m2 CLR
00:53 11.1 °F 2.3 °F 995.8 in NW 40.7 mph 40.7 mph 55 % 0.0 in 0.0 W/m2 CLR
00:59 10.8 °F 2.2 °F 996.2 in NW 27.8 mph 27.8 mph 55 % 0.0 in 0.0 W/m2 CLR
01:03 10.8 °F 2.3 °F 996.2 in NW 37.0 mph 37.0 mph 56 % 0.0 in 0.0 W/m2 CLR
01:09 10.8 °F 2.1 °F 996.2 in NW 31.5 mph 31.5 mph 55 % 0.0 in 0.0 W/m2 CLR
01:14 10.7 °F 2.1 °F 996.2 in WNW 42.6 mph 42.6 mph 55 % 0.0 in 0.0 W/m2 CLR
01:19 10.7 °F 2.1 °F 996.5 in NW 40.7 mph 40.7 mph 55 % 0.0 in 0.0 W/m2 CLR
01:24 10.7 °F 2.1 °F 996.5 in NW 37.0 mph 37.0 mph 55 % 0.0 in 0.0 W/m2 CLR
01:29 10.6 °F 2.1 °F 996.8 in NNW 33.8 mph 33.8 mph 56 % 0.0 in 0.0 W/m2 CLR
01:34 10.4 °F 2.2 °F 997.2 in NNW 31.5 mph 31.5 mph 57 % 0.0 in 0.0 W/m2 CLR
01:39 10.3 °F 2.1 °F 997.2 in NNW 46.3 mph 46.3 mph 57 % 0.0 in 0.0 W/m2 CLR
01:44 10.3 °F 2.1 °F 997.2 in NNW 41.8 mph 41.8 mph 57 % 0.0 in 0.0 W/m2 CLR
01:49 10.3 °F 1.9 °F 997.2 in NW 38.9 mph 38.9 mph 56 % 0.0 in 0.0 W/m2 CLR
01:54 10.2 °F 2.3 °F 997.2 in NNW 29.6 mph 29.6 mph 58 % 0.0 in 0.0 W/m2 CLR
01:59 10.1 °F 2.2 °F 997.5 in NNW 27.8 mph 27.8 mph 58 % 0.0 in 0.0 W/m2 CLR
02:04 10.0 °F 2.1 °F 997.5 in NNW 32.2 mph 32.2 mph 58 % 0.0 in 0.0 W/m2 CLR
02:09 9.9 °F 2.1 °F 997.5 in NW 24.1 mph 24.1 mph 58 % 0.0 in 0.0 W/m2 CLR
02:14 9.8 °F 2.2 °F 997.5 in North 31.5 mph 31.5 mph 59 % 0.0 in 0.0 W/m2 CLR
02:19 9.8 °F 1.9 °F 997.5 in North 35.4 mph 35.4 mph 58 % 0.0 in 0.0 W/m2 CLR
02:24 9.7 °F 2.1 °F 997.5 in NW 31.5 mph 31.5 mph 59 % 0.0 in 0.0 W/m2 CLR
02:29 9.7 °F 2.1 °F 997.9 in NW 37.0 mph 37.0 mph 59 % 0.0 in 0.0 W/m2 CLR
02:34 9.5 °F 1.9 °F 997.9 in NNW 29.6 mph 29.6 mph 59 % 0.0 in 0.0 W/m2 CLR
02:39 9.5 °F 1.9 °F 998.2 in NNW 24.1 mph 24.1 mph 59 % 0.0 in 0.0 W/m2 CLR
02:44 9.3 °F 1.9 °F 998.2 in NNW 33.3 mph 33.3 mph 60 % 0.0 in 0.0 W/m2 CLR
02:49 9.4 °F 2.0 °F 998.5 in NNW 25.9 mph 25.9 mph 60 % 0.0 in 0.0 W/m2 CLR
02:54 9.3 °F 1.9 °F 998.5 in WNW 22.2 mph 22.2 mph 60 % 0.0 in 0.0 W/m2 CLR
02:59 9.4 °F 2.0 °F 998.5 in NW 29.6 mph 29.6 mph 60 % 0.0 in 0.0 W/m2 CLR
03:04 9.3 °F 1.9 °F 998.5 in NW 31.5 mph 31.5 mph 60 % 0.0 in 0.0 W/m2 CLR
03:09 9.2 °F 1.8 °F 998.5 in NW 33.3 mph 33.3 mph 60 % 0.0 in 0.0 W/m2 CLR
03:14 9.2 °F 1.8 °F 998.5 in NW 27.8 mph 27.8 mph 60 % 0.0 in 0.0 W/m2 CLR
03:19 9.1 °F 2.0 °F 998.5 in NW 24.1 mph 24.1 mph 61 % 0.0 in 0.0 W/m2 CLR
03:24 9.1 °F 1.9 °F 998.9 in NW 25.9 mph 25.9 mph 61 % 0.0 in 0.0 W/m2 CLR
03:29 9.0 °F 2.1 °F 998.9 in NW 29.0 mph 29.0 mph 62 % 0.0 in 0.0 W/m2 CLR
03:34 8.9 °F 2.0 °F 998.9 in NW 25.9 mph 25.9 mph 62 % 0.0 in 0.0 W/m2 CLR
03:39 8.7 °F 2.1 °F 998.9 in NW 22.5 mph 22.5 mph 63 % 0.0 in 0.0 W/m2 CLR
03:44 8.6 °F 2.2 °F 998.9 in NW 25.9 mph 25.9 mph 64 % 0.0 in 0.0 W/m2 CLR
03:49 8.4 °F 2.0 °F 998.9 in NW 16.7 mph 16.7 mph 64 % 0.0 in 0.0 W/m2 CLR
03:54 8.3 °F 2.1 °F 998.9 in NW 22.2 mph 22.2 mph 65 % 0.0 in 0.0 W/m2 CLR
03:59 8.2 °F 2.0 °F 998.9 in NNW 18.5 mph 18.5 mph 65 % 0.0 in 0.0 W/m2 CLR
04:04 8.2 °F 2.0 °F 998.9 in NNW 20.4 mph 20.4 mph 65 % 0.0 in 0.0 W/m2 CLR
04:09 8.1 °F 1.9 °F 998.9 in NW 18.5 mph 18.5 mph 65 % 0.0 in 0.0 W/m2 CLR
04:14 8.2 °F 1.8 °F 999.2 in NW 20.4 mph 20.4 mph 64 % 0.0 in 0.0 W/m2 CLR
04:19 8.1 °F 1.7 °F 999.2 in NNW 14.8 mph 14.8 mph 64 % 0.0 in 0.0 W/m2 CLR
04:24 8.1 °F 1.7 °F 999.5 in North 9.3 mph 9.3 mph 64 % 0.0 in 0.0 W/m2 CLR
04:29 8.0 °F 1.6 °F 999.5 in NW 11.1 mph 11.1 mph 64 % 0.0 in 0.0 W/m2 CLR
04:34 8.0 °F 1.4 °F 999.5 in NNW 11.1 mph 11.1 mph 63 % 0.0 in 0.0 W/m2 CLR
04:39 7.9 °F 1.3 °F 999.9 in NW 13.0 mph 13.0 mph 63 % 0.0 in 0.0 W/m2 CLR
04:44 7.8 °F 1.2 °F 999.9 in NNW 9.3 mph 9.3 mph 63 % 0.0 in 0.0 W/m2 CLR
04:49 7.7 °F 1.1 °F 1000.2 in Calm     63 % 0.0 in 0.0 W/m2 CLR
04:54 7.7 °F 1.1 °F 1000.2 in Calm     63 % 0.0 in 0.0 W/m2 CLR
04:59 7.6 °F 1.0 °F 1000.2 in Calm     63 % 0.0 in 0.0 W/m2 CLR
05:04 7.5 °F 1.1 °F 1000.6 in Calm     64 % 0.0 in 0.0 W/m2 CLR
05:09 7.3 °F 1.2 °F 1000.2 in Calm     65 % 0.0 in 0.0 W/m2 CLR
05:14 7.1 °F 0.9 °F 1000.2 in Calm     65 % 0.0 in 0.0 W/m2 CLR
05:19 6.8 °F 0.9 °F 1000.6 in Calm     66 % 0.0 in 0.0 W/m2 CLR
05:24 6.5 °F 1.0 °F 1000.6 in Calm     68 % 0.0 in 0.0 W/m2 CLR
05:29 6.3 °F 1.0 °F 1000.6 in Calm     69 % 0.0 in 0.0 W/m2 CLR
05:34 6.1 °F 1.0 °F 1000.6 in North 12.9 mph 12.9 mph 70 % 0.0 in 0.0 W/m2 CLR
05:39 6.2 °F 0.9 °F 1000.9 in NNW 7.4 mph 7.4 mph 69 % 0.0 in 0.0 W/m2 CLR
05:44 6.1 °F 0.8 °F 1000.9 in North 9.3 mph 9.3 mph 69 % 0.0 in 0.0 W/m2 CLR
05:49 6.1 °F 0.8 °F 1001.2 in NNE 11.3 mph 11.3 mph 69 % 0.0 in 0.0 W/m2 CLR
05:54 6.2 °F 0.9 °F 1001.2 in NNE 13.0 mph 13.0 mph 69 % 0.0 in 0.0 W/m2 CLR
05:59 6.2 °F 0.9 °F 1001.2 in Calm     69 % 0.0 in 0.0 W/m2 CLR
06:04 6.2 °F 0.9 °F 1001.2 in North 5.6 mph   69 % 0.0 in 0.0 W/m2 CLR
06:09 6.2 °F 0.9 °F 1001.6 in North 7.4 mph 7.4 mph 69 % 0.0 in 0.0 W/m2 CLR
06:14 6.2 °F 0.7 °F 1001.6 in Calm     68 % 0.0 in 0.0 W/m2 CLR
06:19 6.1 °F 0.8 °F 1001.6 in Calm     69 % 0.0 in 0.0 W/m2 CLR
06:24 5.8 °F 0.6 °F 1001.6 in Calm     69 % 0.0 in 0.0 W/m2 CLR
06:29 5.6 °F 0.5 °F 1001.6 in Calm     70 % 0.0 in 0.0 W/m2 CLR
06:34 5.1 °F 0.5 °F 1001.9 in Calm     72 % 0.0 in 0.0 W/m2 CLR
06:39 4.9 °F 0.5 °F 1001.9 in Calm     73 % 0.0 in 0.0 W/m2 CLR
06:44 4.3 °F 0.1 °F 1001.9 in Calm     74 % 0.0 in 0.0 W/m2 CLR
06:49 4.1 °F 0.4 °F 1001.9 in Calm     77 % 0.0 in 0.0 W/m2 CLR
06:54 4.5 °F 0.4 °F 1002.3 in Calm     75 % 0.0 in 0.0 W/m2 CLR
06:59 4.1 °F 0.2 °F 1002.3 in WNW 8.0 mph 8.0 mph 76 % 0.0 in 0.0 W/m2 CLR
07:04 3.8 °F 0.1 °F 1002.6 in Calm     77 % 0.0 in 0.0 W/m2 CLR
07:09 3.7 °F 0.2 °F 1002.6 in Calm     78 % 0.0 in 0.0 W/m2 CLR
07:14 3.7 °F 0.2 °F 1002.9 in Calm     78 % 0.0 in 0.0 W/m2 CLR
07:19 3.4 °F -0.1 °F 1002.9 in Calm     78 % 0.0 in 0.0 W/m2 CLR
07:24 3.1 °F -0.2 °F 1002.9 in Calm     79 % 0.0 in 0.0 W/m2 OVC
07:29 3.1 °F -0.1 °F 1002.9 in Calm     80 % 0.0 in 5.0 W/m2 OVC
07:34 2.9 °F -0.2 °F 1002.9 in WNW 7.4 mph 7.4 mph 80 % 0.0 in 7.0 W/m2 OVC
07:39 2.7 °F -0.2 °F 1002.9 in WNW 11.1 mph 11.1 mph 81 % 0.0 in 9.0 W/m2 BKN
07:44 1.1 °F -1.6 °F 1002.9 in Calm     82 % 0.0 in 11.0 W/m2 BKN
07:49 1.1 °F -1.8 °F 1003.3 in Calm     81 % 0.0 in 12.0 W/m2 BKN
07:54 1.1 °F -1.8 °F 1003.6 in Calm     81 % 0.0 in 16.0 W/m2 BKN
07:59 1.1 °F -1.8 °F 1003.6 in Calm     81 % 0.0 in 18.0 W/m2 BKN
08:05 1.1 °F -1.8 °F 1003.6 in Calm     81 % 0.0 in 25.0 W/m2 BKN
08:10 1.1 °F -1.8 °F 1003.6 in Calm     81 % 0.0 in 35.0 W/m2 BKN
08:15 1.1 °F -1.6 °F 1003.3 in Calm     82 % 0.0 in 44.0 W/m2 BKN
08:20 1.1 °F -1.6 °F 1003.3 in Calm     82 % 0.0 in 63.0 W/m2 SCT
08:25 1.7 °F -1.2 °F 1003.3 in Calm     81 % 0.0 in 76.0 W/m2 FEW
08:30 1.1 °F -1.9 °F 1003.3 in Calm     80 % 0.0 in 95.0 W/m2 CLR
08:35 1.1 °F -2.1 °F 1003.6 in Calm     79 % 0.0 in 116.0 W/m2 CLR
08:40 1.1 °F -1.9 °F 1003.6 in Calm     80 % 0.0 in 134.0 W/m2 CLR
08:45 1.7 °F -1.4 °F 1003.3 in Calm     80 % 0.0 in 153.0 W/m2 CLR
08:50 1.7 °F -1.6 °F 1003.3 in Calm     79 % 0.0 in 79.0 W/m2 CLR
08:55 2.2 °F -1.1 °F 1003.6 in Calm     79 % 0.0 in 190.0 W/m2 CLR
09:00 2.2 °F -0.9 °F 1003.9 in Calm     80 % 0.0 in 211.0 W/m2 CLR
09:05 2.8 °F -0.7 °F 1004.3 in Calm     78 % 0.0 in 227.0 W/m2 CLR
09:10 3.9 °F -0.5 °F 1004.3 in North 9.3 mph 9.3 mph 73 % 0.0 in 246.0 W/m2 CLR
09:15 3.9 °F -1.5 °F 1004.3 in North 14.5 mph 14.5 mph 68 % 0.0 in 267.0 W/m2 CLR
09:20 4.4 °F -1.3 °F 1004.6 in NW 18.5 mph 18.5 mph 66 % 0.0 in 253.0 W/m2 CLR
09:25 6.1 °F -0.4 °F 1004.6 in NNW 13.0 mph 13.0 mph 63 % 0.0 in 269.0 W/m2 CLR
09:30 6.7 °F 0.1 °F 1004.6 in WNW 16.1 mph 16.1 mph 63 % 0.0 in 60.0 W/m2 CLR
09:35 7.2 °F 0.4 °F 1004.6 in NNW 13.0 mph 13.0 mph 62 % 0.0 in 39.0 W/m2 FEW
09:40 6.7 °F 0.3 °F 1004.3 in North 5.6 mph 5.6 mph 64 % 0.0 in 345.0 W/m2 SCT
09:45 7.2 °F 0.7 °F 1004.3 in NNE 13.0 mph 13.0 mph 63 % 0.0 in 359.0 W/m2 FEW
09:50 7.8 °F 1.4 °F 1004.3 in Calm     64 % 0.0 in 373.0 W/m2 CLR
09:55 7.8 °F 1.2 °F 1004.3 in Calm     63 % 0.0 in 387.0 W/m2 CLR
10:00 8.3 °F 1.2 °F 1004.3 in NNW 9.3 mph 9.3 mph 61 % 0.0 in 404.0 W/m2 CLR
10:05 8.3 °F 0.8 °F 1003.9 in Calm     59 % 0.0 in 420.0 W/m2 CLR
10:10 8.3 °F 1.0 °F 1003.9 in ENE 13.0 mph 13.0 mph 60 % 0.0 in 436.0 W/m2 CLR
10:15 8.9 °F 1.1 °F 1003.9 in NE 7.4 mph 7.4 mph 58 % 0.0 in 450.0 W/m2 CLR
10:20 8.9 °F 1.3 °F 1003.9 in Calm     59 % 0.0 in 471.0 W/m2 CLR
10:25 8.9 °F 0.6 °F 1003.9 in ENE 14.8 mph 14.8 mph 56 % 0.0 in 480.0 W/m2 CLR
10:30 9.4 °F 1.6 °F 1003.9 in Calm     58 % 0.0 in 540.0 W/m2 CLR
10:35 9.4 °F 1.1 °F 1003.9 in Calm     56 % 0.0 in 417.0 W/m2 CLR
10:40 10.0 °F 1.4 °F 1004.3 in Calm     55 % 0.0 in 406.0 W/m2 CLR
10:45 10.0 °F 1.6 °F 1004.3 in Calm     56 % 0.0 in 309.0 W/m2 CLR
10:50 10.0 °F 1.6 °F 1004.3 in Calm     56 % 0.0 in 350.0 W/m2 CLR
10:55 10.0 °F 1.6 °F 1004.3 in Calm     56 % 0.0 in 399.0 W/m2 CLR
11:00 10.0 °F 1.4 °F 1004.3 in Calm     55 % 0.0 in 360.0 W/m2 CLR
11:05 10.0 °F 1.1 °F 1004.3 in Calm     54 % 0.0 in 345.0 W/m2 CLR
11:10 10.6 °F 1.9 °F 1004.3 in Calm     55 % 0.0 in 352.0 W/m2 CLR
11:15 10.6 °F 1.6 °F 1004.3 in Calm     54 % 0.0 in 288.0 W/m2 CLR
11:20 10.0 °F 1.4 °F 1003.9 in Calm     55 % 0.0 in 197.0 W/m2 CLR
11:25 10.0 °F 1.4 °F 1003.9 in Calm     55 % 0.0 in 139.0 W/m2 CLR
11:30 10.0 °F 1.4 °F 1003.9 in Calm     55 % 0.0 in 650.0 W/m2 CLR
11:35 11.1 °F 2.4 °F 1003.9 in SSE 5.6 mph 5.6 mph 55 % 0.0 in 645.0 W/m2 CLR
11:40 11.1 °F 1.9 °F 1003.9 in SE 1.9 mph   53 % 0.0 in 596.0 W/m2 CLR
11:45 11.1 °F 1.9 °F 1004.3 in SE 16.7 mph 16.7 mph 53 % 0.0 in 446.0 W/m2 CLR
11:50 11.7 °F 2.7 °F 1004.3 in SSE 7.4 mph 7.4 mph 54 % 0.0 in 715.0 W/m2 CLR
11:55 11.7 °F 2.4 °F 1004.3 in ESE 1.9 mph   53 % 0.0 in 622.0 W/m2 CLR
12:00 11.1 °F 1.9 °F 1003.9 in ESE 3.7 mph 3.7 mph 53 % 0.0 in 260.0 W/m2 CLR
12:05 11.1 °F 1.9 °F 1003.9 in East 14.5 mph 14.5 mph 53 % 0.0 in 668.0 W/m2 CLR
12:10 11.1 °F 2.2 °F 1003.9 in SE 5.6 mph 5.6 mph 54 % 0.0 in 230.0 W/m2 CLR
12:15 11.1 °F 2.2 °F 1003.9 in SE 5.6 mph 5.6 mph 54 % 0.0 in 192.0 W/m2 CLR
12:20 10.6 °F 1.4 °F 1003.9 in ESE 6.4 mph 6.4 mph 53 % 0.0 in 146.0 W/m2 CLR
12:25 10.6 °F 1.6 °F 1003.9 in SSE 14.8 mph 14.8 mph 54 % 0.0 in 160.0 W/m2 CLR
12:30 10.6 °F 1.4 °F 1003.9 in East 3.7 mph 3.7 mph 53 % 0.0 in 167.0 W/m2 CLR
12:35 10.6 °F 1.6 °F 1003.9 in ESE 1.9 mph 1.9 mph 54 % 0.0 in 155.0 W/m2 CLR
12:40 10.6 °F 1.6 °F 1003.9 in East 3.7 mph 3.7 mph 54 % 0.0 in 125.0 W/m2 CLR
12:45 10.6 °F 1.6 °F 1004.3 in SE 9.3 mph 9.3 mph 54 % 0.0 in 111.0 W/m2 CLR
12:50 10.6 °F 1.9 °F 1003.9 in SE 3.7 mph 3.7 mph 55 % 0.0 in 125.0 W/m2 CLR
12:55 10.6 °F 1.9 °F 1003.9 in SSE 5.6 mph 5.6 mph 55 % 0.0 in 155.0 W/m2 CLR
13:00 10.6 °F 2.1 °F 1003.9 in SSE 5.6 mph 5.6 mph 56 % 0.0 in 185.0 W/m2 CLR
13:06 11.1 °F 2.9 °F 1003.9 in SE 5.6 mph 5.6 mph 57 % 0.0 in 146.0 W/m2 CLR
13:11 11.1 °F 2.7 °F 1003.9 in ESE 20.4 mph 20.4 mph 56 % 0.0 in 169.0 W/m2 CLR
13:16 10.6 °F 1.9 °F 1003.9 in SE 16.7 mph 16.7 mph 55 % 0.0 in 155.0 W/m2 CLR
13:21 11.1 °F 2.7 °F 1003.6 in ESE 18.5 mph 18.5 mph 56 % 0.0 in 225.0 W/m2 CLR
13:26 11.1 °F 2.7 °F 1003.6 in SE 16.7 mph 16.7 mph 56 % 0.0 in 279.0 W/m2 CLR
13:31 11.1 °F 2.7 °F 1003.6 in SSE 13.0 mph 13.0 mph 56 % 0.0 in 318.0 W/m2 CLR
13:36 11.1 °F 2.7 °F 1003.3 in SE 14.5 mph 14.5 mph 56 % 0.0 in 195.0 W/m2 CLR
13:41 11.1 °F 2.7 °F 1002.9 in SE 14.8 mph 14.8 mph 56 % 0.0 in 178.0 W/m2 CLR
13:46 11.1 °F 2.4 °F 1002.9 in SE 20.4 mph 20.4 mph 55 % 0.0 in 197.0 W/m2 CLR
13:51 11.7 °F 2.7 °F 1002.9 in SSE 18.5 mph 18.5 mph 54 % 0.0 in 236.0 W/m2 CLR
13:56 11.7 °F 2.9 °F 1002.9 in SE 14.8 mph 14.8 mph 55 % 0.0 in 229.0 W/m2 CLR
14:01 11.7 °F 2.9 °F 1002.9 in South 12.9 mph 12.9 mph 55 % 0.0 in 241.0 W/m2 CLR
14:06 11.7 °F 2.7 °F 1002.9 in SSE 18.5 mph 18.5 mph 54 % 0.0 in 297.0 W/m2 CLR
14:11 12.2 °F 2.9 °F 1002.9 in SSW 20.4 mph 20.4 mph 53 % 0.0 in 214.0 W/m2 CLR
14:16 12.2 °F 3.2 °F 1002.9 in SSW 20.4 mph 20.4 mph 54 % 0.0 in 294.0 W/m2 CLR
14:21 12.2 °F 2.7 °F 1002.6 in South 27.8 mph 27.8 mph 52 % 0.0 in 323.0 W/m2 CLR
14:26 12.8 °F 3.2 °F 1002.6 in SSE 25.9 mph 25.9 mph 52 % 0.0 in 302.0 W/m2 CLR
14:31 12.2 °F 2.9 °F 1002.6 in SSE 20.4 mph 20.4 mph 53 % 0.0 in 262.0 W/m2 CLR
14:36 12.2 °F 3.2 °F 1002.6 in SSE 20.4 mph 20.4 mph 54 % 0.0 in 260.0 W/m2 CLR
14:41 12.8 °F 3.4 °F 1002.3 in South 25.9 mph 25.9 mph 53 % 0.0 in 413.0 W/m2 CLR
14:46 12.8 °F 3.7 °F 1001.9 in SE 9.3 mph 9.3 mph 54 % 0.0 in 330.0 W/m2 CLR
14:51 12.8 °F 3.4 °F 1002.3 in South 19.3 mph 19.3 mph 53 % 0.0 in 281.0 W/m2 CLR
14:56 12.8 °F 3.4 °F 1002.3 in South 29.6 mph 29.6 mph 53 % 0.0 in 272.0 W/m2 CLR
15:01 12.8 °F 3.2 °F 1001.9 in SSE 22.2 mph 22.2 mph 52 % 0.0 in 287.0 W/m2 CLR
15:06 12.8 °F 3.4 °F 1001.9 in South 24.1 mph 24.1 mph 53 % 0.0 in 213.0 W/m2 CLR
15:11 12.2 °F 3.2 °F 1001.9 in SSW 16.7 mph 16.7 mph 54 % 0.0 in 155.0 W/m2 CLR
15:16 12.2 °F 3.4 °F 1001.9 in SSW 16.7 mph 16.7 mph 55 % 0.0 in 165.0 W/m2 CLR
15:21 11.7 °F 3.4 °F 1001.9 in South 27.8 mph 27.8 mph 57 % 0.0 in 146.0 W/m2 CLR
15:26 11.7 °F 3.9 °F 1001.9 in SSE 13.0 mph 13.0 mph 59 % 0.0 in 135.0 W/m2 CLR
15:31 11.7 °F 4.2 °F 1001.9 in SSW 18.5 mph 18.5 mph 60 % 0.0 in 127.0 W/m2 CLR
15:36 11.7 °F 4.2 °F 1001.9 in South 20.4 mph 20.4 mph 60 % 0.0 in 132.0 W/m2 CLR
15:41 11.7 °F 4.2 °F 1001.6 in South 18.5 mph 18.5 mph 60 % 0.0 in 137.0 W/m2 CLR
15:46 11.7 °F 4.2 °F 1001.6 in SSE 18.5 mph 18.5 mph 60 % 0.0 in 111.0 W/m2 CLR
15:51 11.7 °F 4.4 °F 1001.6 in South 20.4 mph 20.4 mph 61 % 0.0 in 107.0 W/m2 CLR
15:56 11.1 °F 4.3 °F 1001.6 in SSW 9.7 mph 9.7 mph 63 % 0.0 in 113.0 W/m2 CLR
16:01 11.1 °F 4.6 °F 1001.6 in SSW 9.7 mph 9.7 mph 64 % 0.0 in 107.0 W/m2 CLR
16:06 11.1 °F 4.8 °F 1001.6 in SSW 5.6 mph 5.6 mph 65 % 0.0 in 105.0 W/m2 CLR
16:11 11.1 °F 5.2 °F 1001.2 in South 12.9 mph 12.9 mph 67 % 0.0 in 86.0 W/m2 CLR
16:16 11.1 °F 5.4 °F 1000.9 in South 13.0 mph 13.0 mph 68 % 0.0 in 232.0 W/m2 CLR
16:21 11.1 °F 5.8 °F 1000.9 in South 11.1 mph 11.1 mph 70 % 0.0 in 255.0 W/m2 CLR
16:26 11.1 °F 6.4 °F 1000.9 in SSE 3.7 mph 3.7 mph 73 % 0.0 in 188.0 W/m2 CLR
16:31 11.1 °F 6.3 °F 1000.6 in SSE 5.6 mph 5.6 mph 72 % 0.0 in 165.0 W/m2 CLR
16:36 11.1 °F 6.3 °F 1000.6 in SSE 11.1 mph 11.1 mph 72 % 0.0 in 165.0 W/m2 CLR
16:41 11.1 °F 6.1 °F 1000.2 in South 7.4 mph 7.4 mph 71 % 0.0 in 190.0 W/m2 CLR
16:46 11.1 °F 6.3 °F 1000.2 in South 8.0 mph 8.0 mph 72 % 0.0 in 207.0 W/m2 CLR
16:51 11.7 °F 6.8 °F 999.9 in South 9.3 mph 9.3 mph 72 % 0.0 in 211.0 W/m2 CLR
16:56 11.7 °F 6.6 °F 999.5 in South 5.6 mph 5.6 mph 71 % 0.0 in 396.0 W/m2 CLR
17:01 12.2 °F 6.9 °F 999.5 in SSE 14.8 mph 14.8 mph 70 % 0.0 in 197.0 W/m2 CLR
17:06 11.7 °F 6.4 °F 999.5 in SSE 3.7 mph 3.7 mph 70 % 0.0 in 323.0 W/m2 CLR
17:11 12.2 °F 6.9 °F 999.2 in SSE 8.0 mph 8.0 mph 70 % 0.0 in 290.0 W/m2 CLR
17:16 12.2 °F 6.7 °F 999.5 in SSE 13.0 mph 13.0 mph 69 % 0.0 in 248.0 W/m2 CLR
17:19 12.2 °F 6.7 °F 999.5 in SSE 7.4 mph 7.4 mph 69 % 0.0 in 315.0 W/m2 CLR
17:21 12.2 °F 6.7 °F 999.5 in SSE 7.4 mph 7.4 mph 69 % 0.0 in 315.0 W/m2 CLR
17:26 12.2 °F 6.7 °F 999.5 in SSE 7.4 mph 7.4 mph 69 % 0.0 in 315.0 W/m2 CLR
17:37 12.2 °F 6.7 °F 999.5 in SE 7.4 mph 7.4 mph 69 % 0.0 in 278.0 W/m2 CLR
17:42 11.7 °F 6.4 °F 999.5 in South 6.4 mph 6.4 mph 70 % 0.0 in 109.0 W/m2 CLR
17:47 11.7 °F 6.2 °F 999.5 in South 14.8 mph 14.8 mph 69 % 0.0 in 211.0 W/m2 CLR
17:52 12.2 °F 5.8 °F 999.5 in SSW 19.3 mph 19.3 mph 65 % 0.0 in 91.0 W/m2 CLR
17:57 12.2 °F 5.4 °F 999.2 in SW 18.5 mph 18.5 mph 63 % 0.0 in 127.0 W/m2 CLR
18:02 12.8 °F 6.1 °F 999.2 in SW 14.8 mph 14.8 mph 64 % 0.0 in 60.0 W/m2 SCT
18:07 12.2 °F 5.6 °F 999.2 in SSW 13.0 mph 13.0 mph 64 % 0.0 in 72.0 W/m2 FEW
18:12 12.2 °F 5.6 °F 999.2 in SW 14.8 mph 14.8 mph 64 % 0.0 in 49.0 W/m2 SCT
18:17 12.2 °F 5.8 °F 999.2 in SW 22.2 mph 22.2 mph 65 % 0.0 in 35.0 W/m2 BKN
18:22 12.2 °F 5.8 °F 999.2 in SW 20.9 mph 20.9 mph 65 % 0.0 in 19.0 W/m2 BKN
18:27 11.7 °F 5.5 °F 998.9 in SW 17.7 mph 17.7 mph 66 % 0.0 in 14.0 W/m2 BKN
18:32 11.7 °F 5.7 °F 999.2 in SSW 22.2 mph 22.2 mph 67 % 0.0 in 7.0 W/m2 BKN
18:37 11.7 °F 5.9 °F 998.9 in SSW 14.8 mph 14.8 mph 68 % 0.0 in 5.0 W/m2 OVC
18:42 11.7 °F 5.9 °F 998.9 in SSW 5.6 mph 5.6 mph 68 % 0.0 in 0.0 W/m2 OVC
18:47 11.1 °F 5.6 °F 998.9 in SSE 9.3 mph 9.3 mph 69 % 0.0 in 0.0 W/m2 OVC
18:52 11.1 °F 5.6 °F 999.2 in SSW 3.7 mph 3.7 mph 69 % 0.0 in 0.0 W/m2 OVC
18:57 11.1 °F 5.6 °F 999.2 in South 11.1 mph 11.1 mph 69 % 0.0 in 0.0 W/m2 OVC
19:02 10.6 °F 5.3 °F 999.2 in South 5.6 mph 5.6 mph 70 % 0.0 in 0.0 W/m2 CLR
19:07 10.6 °F 5.3 °F 999.2 in South 13.0 mph 13.0 mph 70 % 0.0 in 0.0 W/m2 CLR
19:12 10.6 °F 5.5 °F 999.2 in South 6.4 mph 6.4 mph 71 % 0.0 in 0.0 W/m2 CLR
19:17 10.6 °F 5.5 °F 999.2 in South 6.4 mph 6.4 mph 71 % 0.0 in 0.0 W/m2 CLR
19:22 10.6 °F 5.5 °F 999.2 in SSW 11.1 mph 11.1 mph 71 % 0.0 in 0.0 W/m2 CLR
19:27 10.6 °F 5.5 °F 999.5 in South 14.8 mph 14.8 mph 71 % 0.0 in 0.0 W/m2 CLR
19:32 10.6 °F 5.5 °F 999.5 in SSW 5.6 mph 5.6 mph 71 % 0.0 in 0.0 W/m2 CLR
19:37 10.6 °F 5.7 °F 999.5 in South 7.4 mph 7.4 mph 72 % 0.0 in 0.0 W/m2 CLR
19:42 11.1 °F 6.1 °F 999.5 in Calm     71 % 0.0 in 0.0 W/m2 CLR
19:47 11.1 °F 6.3 °F 999.5 in Calm     72 % 0.0 in 0.0 W/m2 CLR
19:52 10.6 °F 5.5 °F 999.5 in Calm     71 % 0.0 in 0.0 W/m2 CLR
19:57 10.6 °F 5.7 °F 999.5 in Calm     72 % 0.0 in 0.0 W/m2 CLR
20:02 10.6 °F 5.7 °F 999.5 in Calm     72 % 0.0 in 0.0 W/m2 CLR
20:07 10.6 °F 5.7 °F 999.5 in Calm     72 % 0.0 in 0.0 W/m2 CLR
20:12 10.0 °F 5.4 °F 999.5 in Calm     73 % 0.0 in 0.0 W/m2 CLR
20:17 10.0 °F 5.4 °F 999.9 in Calm     73 % 0.0 in 0.0 W/m2 CLR
20:22 9.4 °F 4.8 °F 999.5 in Calm     73 % 0.0 in 0.0 W/m2 CLR
20:27 9.4 °F 5.1 °F 999.5 in Calm     74 % 0.0 in 0.0 W/m2 CLR
20:32 9.4 °F 5.2 °F 999.5 in Calm     75 % 0.0 in 0.0 W/m2 CLR
20:37 9.4 °F 5.2 °F 999.2 in Calm     75 % 0.0 in 0.0 W/m2 CLR
20:42 8.9 °F 4.9 °F 999.2 in Calm     76 % 0.0 in 0.0 W/m2 CLR
20:47 8.9 °F 4.9 °F 998.9 in Calm     76 % 0.0 in 0.0 W/m2 CLR
20:52 8.9 °F 5.3 °F 998.9 in Calm     78 % 0.0 in 0.0 W/m2 CLR
20:57 8.3 °F 4.7 °F 998.9 in Calm     78 % 0.0 in 0.0 W/m2 CLR
21:02 8.3 °F 4.7 °F 998.5 in Calm     78 % 0.0 in 0.0 W/m2 CLR
21:07 7.8 °F 4.4 °F 998.5 in Calm     79 % 0.0 in 0.0 W/m2 CLR
21:12 7.2 °F 3.8 °F 998.5 in Calm     79 % 0.0 in 0.0 W/m2 CLR
21:17 7.2 °F 4.0 °F 998.5 in Calm     80 % 0.0 in 0.0 W/m2 CLR
21:22 6.7 °F 3.4 °F 998.5 in Calm     80 % 0.0 in 0.0 W/m2 CLR
21:27 6.7 °F 3.4 °F 998.5 in Calm     80 % 0.0 in 0.0 W/m2 CLR
21:32 6.7 °F 3.4 °F 998.9 in Calm     80 % 0.0 in 0.0 W/m2 CLR
21:37 6.1 °F 2.7 °F 998.9 in Calm     79 % 0.0 in 0.0 W/m2 CLR
21:42 6.1 °F 2.7 °F 998.5 in Calm     79 % 0.0 in 0.0 W/m2 CLR
21:47 6.1 °F 2.9 °F 998.5 in Calm     80 % 0.0 in 0.0 W/m2 CLR
21:52 5.6 °F 2.6 °F 998.5 in Calm     81 % 0.0 in 0.0 W/m2 CLR
21:57 6.1 °F 3.3 °F 998.5 in Calm     82 % 0.0 in 0.0 W/m2 CLR
22:02 6.1 °F 3.4 °F 998.5 in Calm     83 % 0.0 in 0.0 W/m2 CLR
22:07 5.6 °F 2.9 °F 998.9 in Calm     83 % 0.0 in 0.0 W/m2 CLR
22:12 5.6 °F 2.9 °F 998.5 in Calm     83 % 0.0 in 0.0 W/m2 CLR
22:17 5.6 °F 2.9 °F 998.5 in Calm     83 % 0.0 in 0.0 W/m2 CLR
22:23 5.6 °F 2.9 °F 998.5 in Calm     83 % 0.0 in 0.0 W/m2 CLR
22:28 5.6 °F 2.9 °F 998.2 in Calm     83 % 0.0 in 0.0 W/m2 CLR
22:33 5.6 °F 3.1 °F 998.2 in Calm     84 % 0.0 in 0.0 W/m2 CLR
22:38 5.0 °F 2.7 °F 998.2 in Calm     85 % 0.0 in 0.0 W/m2 CLR
22:43 5.0 °F 2.7 °F 998.2 in Calm     85 % 0.0 in 0.0 W/m2 CLR
22:48 5.0 °F 2.7 °F 998.2 in Calm     85 % 0.0 in 0.0 W/m2 CLR
22:53 5.6 °F 3.4 °F 998.2 in Calm     86 % 0.0 in 0.0 W/m2 CLR
22:58 5.6 °F 3.4 °F 998.2 in Calm     86 % 0.0 in 0.0 W/m2 CLR
23:03 5.6 °F 3.4 °F 998.2 in Calm     86 % 0.0 in 0.0 W/m2 CLR
23:08 6.1 °F 3.8 °F 998.5 in Calm     85 % 0.0 in 0.0 W/m2 CLR
23:13 6.1 °F 3.8 °F 998.2 in Calm     85 % 0.0 in 0.0 W/m2 CLR
23:18 6.1 °F 3.9 °F 998.2 in Calm     86 % 0.0 in 0.0 W/m2 CLR
23:23 6.1 °F 3.9 °F 998.5 in Calm     86 % 0.0 in 0.0 W/m2 CLR
23:28 6.7 °F 4.3 °F 998.5 in Calm     85 % 0.0 in 0.0 W/m2 CLR
23:33 6.7 °F 4.3 °F 998.9 in Calm     85 % 0.0 in 0.0 W/m2 CLR
23:38 6.7 °F 4.3 °F 998.9 in Calm     85 % 0.0 in 0.0 W/m2 CLR
23:43 6.7 °F 4.3 °F 999.2 in Calm     85 % 0.3 in 0.0 W/m2 RA
23:48 6.7 °F 4.3 °F 999.2 in Calm     85 % 0.5 in 0.0 W/m2 RA
23:53 7.2 °F 4.9 °F 999.2 in Calm     85 % 0.8 in 0.0 W/m2 RA
23:58 6.7 °F 4.5 °F 999.2 in Calm     86 % 1.3 in 0.0 W/m2 RA
Lo Temps de Massalio
Compliments of Weather Underground - 1.25 mb